Air Quality Table

TIMESTAMP NO2 SO2 O3 PM10 PM2.5 CO TEMP HUM AIRPRES WS WD NO BENZENE
2022-01-21 01:00 59.64 µg/m3 0.74 µg/m3 17.33 µg/m3 42.76 µg/m3 23.25 µg/m3 0.64 mg/m3 12.45 °C 69.33 % 1,023.29 mbar 0.79 m/s 234.44 Deg 22.93 µg/m3 4.47 µg/m3
2022-01-20 17:00 35.77 µg/m3 1.54 µg/m3 51.64 µg/m3 38.31 µg/m3 12.51 µg/m3 0.34 mg/m3 14.61 °C 63.83 % 1,024.91 mbar 1.64 m/s 243.62 Deg 19.9 µg/m3 2.35 µg/m3
2022-01-20 09:00 42.95 µg/m3 1.67 µg/m3 17.63 µg/m3 28.6 µg/m3 18.37 µg/m3 0.73 mg/m3 11.4 °C 81.82 % 1,026.95 mbar 0.73 m/s 236.28 Deg 66.55 µg/m3 5.51 µg/m3
2022-01-20 01:00 50.73 µg/m3 1.09 µg/m3 23.83 µg/m3 20.7 µg/m3 15.1 µg/m3 0.49 mg/m3 12.53 °C 79.79 % 1,029.05 mbar 0.81 m/s 191.74 Deg 20.97 µg/m3 3.23 µg/m3
2022-01-19 17:00 43.22 µg/m3 1.46 µg/m3 48.56 µg/m3 34.2 µg/m3 12.26 µg/m3 0.43 mg/m3 14.85 °C 58.96 % 1,030.04 mbar 1.75 m/s 117.17 Deg 42.43 µg/m3 2.61 µg/m3
2022-01-19 09:00 43.61 µg/m3 1.78 µg/m3 21.27 µg/m3 33.5 µg/m3 18.58 µg/m3 0.66 mg/m3 12.06 °C 73.22 % 1,030.10 mbar 0.57 m/s 223.03 Deg 58.54 µg/m3 5.77 µg/m3
2022-01-19 01:00 58.1 µg/m3 1.37 µg/m3 14.99 µg/m3 43.49 µg/m3 24.64 µg/m3 0.69 mg/m3 12.05 °C 70.72 % 1,030.43 mbar 0.97 m/s 233.53 Deg 32.9 µg/m3 5.45 µg/m3
2022-01-18 17:00 29.55 µg/m3 0.89 µg/m3 60.82 µg/m3 36.56 µg/m3 11.44 µg/m3 0.3 mg/m3 14.88 °C 58.64 % 1,028.93 mbar 1.78 m/s 289.41 Deg 13.61 µg/m3 1.69 µg/m3
2022-01-18 09:00 32.56 µg/m3 0.91 µg/m3 45.93 µg/m3 27.37 µg/m3 10.57 µg/m3 0.32 mg/m3 12.32 °C 72.66 % 1,026.68 mbar 1.37 m/s 257.05 Deg 15.69 µg/m3 1.71 µg/m3
2022-01-18 01:00 23.59 µg/m3 0.7 µg/m3 58.11 µg/m3 18.54 µg/m3 10.3 µg/m3 0.28 mg/m3 13.2 °C 72.29 % 1,025.63 mbar 1.63 m/s 256.45 Deg 2.5 µg/m3 1.4 µg/m3
2022-01-17 17:00 32.77 µg/m3 0.88 µg/m3 56.65 µg/m3 44.35 µg/m3 12.61 µg/m3 0.3 mg/m3 14.8 °C 65.42 % 1,025.55 mbar 2.82 m/s 262.78 Deg 12.25 µg/m3 2.09 µg/m3
2022-01-17 09:00 58.93 µg/m3 2.52 µg/m3 5.14 µg/m3 27.93 µg/m3 19.62 µg/m3 0.97 mg/m3 11.12 °C 83.47 % 1,026.20 mbar 0.33 m/s 253.44 Deg 110.49 µg/m3 7.64 µg/m3
2022-01-17 01:00 61.81 µg/m3 1.76 µg/m3 4.57 µg/m3 42.04 µg/m3 30.13 µg/m3 1.06 mg/m3 12.13 °C 81.82 % 1,026.18 mbar 0.62 m/s 238.34 Deg 58.64 µg/m3 8.63 µg/m3
2022-01-16 17:00 38 µg/m3 1.27 µg/m3 51.59 µg/m3 29.22 µg/m3 14.86 µg/m3 0.59 mg/m3 15.01 °C 68.56 % 1,024.91 mbar 1.66 m/s 93.23 Deg 32.66 µg/m3 4.5 µg/m3
2022-01-16 09:00 38.73 µg/m3 1.37 µg/m3 6.04 µg/m3 22.08 µg/m3 16.13 µg/m3 0.65 mg/m3 9.02 °C 83.49 % 1,023.20 mbar 0.67 m/s 241.04 Deg 30.04 µg/m3 5.54 µg/m3
2022-01-16 01:00 65.4 µg/m3 1.83 µg/m3 7.49 µg/m3 49.61 µg/m3 31.47 µg/m3 1.11 mg/m3 10.97 °C 75.15 % 1,021.96 mbar 0.55 m/s 232.2 Deg 58.43 µg/m3 10.16 µg/m3
2022-01-15 17:00 26.77 µg/m3 0.92 µg/m3 63.52 µg/m3 35.26 µg/m3 10.81 µg/m3 0.33 mg/m3 13.87 °C 60.16 % 1,021.75 mbar 1.73 m/s 292.68 Deg 10.76 µg/m3 2.27 µg/m3
2022-01-15 09:00 39.75 µg/m3 1.46 µg/m3 15.12 µg/m3 26.3 µg/m3 16.32 µg/m3 0.55 mg/m3 8.23 °C 75.8 % 1,023.19 mbar 1.03 m/s 235.02 Deg 35.64 µg/m3 5.7 µg/m3
2022-01-15 01:00 55.55 µg/m3 1.25 µg/m3 24.64 µg/m3 36.39 µg/m3 18.34 µg/m3 0.62 mg/m3 10.69 °C 62.79 % 1,025.72 mbar 1 m/s 191.35 Deg 27.95 µg/m3 4.62 µg/m3
2022-01-14 17:00 21.86 µg/m3 1.22 µg/m3 69.12 µg/m3 28.54 µg/m3 11.77 µg/m3 0.3 mg/m3 12.98 °C 57.5 % 1,026.51 mbar 4.08 m/s 42.72 Deg 25.33 µg/m3 1.57 µg/m3
2022-01-14 09:00 9.36 µg/m3 0.84 µg/m3 78.48 µg/m3 17.33 µg/m3 10.31 µg/m3 0.22 mg/m3 12.35 °C 59.53 % 1,026.82 mbar 5.24 m/s 42.87 Deg 10.62 µg/m3 1.11 µg/m3
2022-01-14 01:00 5.69 µg/m3 0.74 µg/m3 78.77 µg/m3 15.45 µg/m3 10.53 µg/m3 0.22 mg/m3 12.77 °C 62.96 % 1,026.55 mbar 6.67 m/s 47.69 Deg 6.89 µg/m3 1.49 µg/m3
2022-01-13 17:00 9.3 µg/m3 0.81 µg/m3 69.5 µg/m3 14.72 µg/m3 10.83 µg/m3 0.25 mg/m3 13.11 °C 70.22 % 1,024.01 mbar 8.19 m/s 48.31 Deg 13.7 µg/m3 1.56 µg/m3
2022-01-13 09:00 17.89 µg/m3 0.79 µg/m3 48.84 µg/m3 8.66 µg/m3 6.58 µg/m3 0.3 mg/m3 11.42 °C 83.36 % 1,021.56 mbar 2.34 m/s 184.88 Deg 13.21 µg/m3 2.03 µg/m3
2022-01-13 01:00 23.35 µg/m3 0.77 µg/m3 43.75 µg/m3 12.62 µg/m3 9.16 µg/m3 0.35 mg/m3 11.59 °C 83.4 % 1,019.73 mbar 1.45 m/s 210.1 Deg 8.74 µg/m3 2.47 µg/m3
2022-01-12 17:00 25.72 µg/m3 1.3 µg/m3 41.46 µg/m3 38.94 µg/m3 14.64 µg/m3 0.46 mg/m3 14.35 °C 66.66 % 1,016.33 mbar 2.08 m/s 172.59 Deg 43.5 µg/m3 4.47 µg/m3
2022-01-12 09:00 33.1 µg/m3 1.88 µg/m3 19.41 µg/m3 32.14 µg/m3 17.39 µg/m3 0.72 mg/m3 11.4 °C 75.57 % 1,013.37 mbar 0.88 m/s 238.22 Deg 72.12 µg/m3 6.06 µg/m3
2022-01-12 01:00 16.51 µg/m3 0.7 µg/m3 50.19 µg/m3 19.1 µg/m3 10.25 µg/m3 0.31 mg/m3 13.79 °C 62.52 % 1,010.61 mbar 1.9 m/s 287.95 Deg 3.13 µg/m3 2.15 µg/m3
2022-01-11 17:00 21.59 µg/m3 0.81 µg/m3 54.24 µg/m3 24.22 µg/m3 8.82 µg/m3 0.31 mg/m3 14.32 °C 60.56 % 1,006.57 mbar 2.97 m/s 292.5 Deg 8.64 µg/m3 1.81 µg/m3
2022-01-11 09:00 15.26 µg/m3 0.75 µg/m3 59.8 µg/m3 12.86 µg/m3 6.29 µg/m3 0.24 mg/m3 11.91 °C 62.94 % 1,002.81 mbar 2.35 m/s 281.94 Deg 4.55 µg/m3 1.62 µg/m3
2022-01-11 01:00 11.72 µg/m3 0.64 µg/m3 67.54 µg/m3 13.61 µg/m3 7 µg/m3 0.23 mg/m3 12.04 °C 61.17 % 1,000.38 mbar 2.91 m/s 277.47 Deg 2.13 µg/m3 1.24 µg/m3
2022-01-10 17:00 22.32 µg/m3 0.66 µg/m3 59.67 µg/m3 21.39 µg/m3 7.88 µg/m3 0.25 mg/m3 12.46 °C 60.66 % 997.90 mbar 4.03 m/s 270.83 Deg 7.99 µg/m3 1.38 µg/m3
2022-01-10 09:00 20.2 µg/m3 0.64 µg/m3 62 µg/m3 7.6 µg/m3 5.15 µg/m3 0.22 mg/m3 10.32 °C 78.59 % 1,000.63 mbar 2.49 m/s 258.62 Deg 6.13 µg/m3 1.13 µg/m3
2022-01-10 01:00 9.26 µg/m3 0.58 µg/m3 72.63 µg/m3 13.03 µg/m3 8.04 µg/m3 0.2 mg/m3 12.81 °C 71.83 % 1,005.88 mbar 3.58 m/s 251.49 Deg 1.41 µg/m3 0.83 µg/m3
2022-01-09 17:00 11.69 µg/m3 0.65 µg/m3 66.99 µg/m3 16.25 µg/m3 8.27 µg/m3 0.23 mg/m3 14.52 °C 64 % 1,008.98 mbar 3.62 m/s 266.68 Deg 2.78 µg/m3 0.98 µg/m3
2022-01-09 09:00 7.19 µg/m3 0.59 µg/m3 69.7 µg/m3 12.15 µg/m3 5.1 µg/m3 0.17 mg/m3 12.62 °C 58.74 % 1,010.06 mbar 2.78 m/s 273.53 Deg 0.76 µg/m3 0.77 µg/m3
2022-01-09 01:00 11.93 µg/m3 0.57 µg/m3 64.55 µg/m3 13.08 µg/m3 7.2 µg/m3 0.23 mg/m3 12.97 °C 57.25 % 1,009.70 mbar 2.83 m/s 293.23 Deg 1.81 µg/m3 1.26 µg/m3
2022-01-08 17:00 16.33 µg/m3 0.59 µg/m3 59.47 µg/m3 19.19 µg/m3 7.15 µg/m3 0.25 mg/m3 14.12 °C 63.75 % 1,008.94 mbar 3.21 m/s 282.79 Deg 5.53 µg/m3 1.36 µg/m3
2022-01-08 09:00 10.32 µg/m3 0.5 µg/m3 62.57 µg/m3 11.07 µg/m3 6.37 µg/m3 0.19 mg/m3 13.64 °C 73.6 % 1,009.28 mbar 2.66 m/s 279.05 Deg 1.5 µg/m3 0.85 µg/m3
2022-01-08 01:00 16.16 µg/m3 0.48 µg/m3 56.6 µg/m3 10.43 µg/m3 7.73 µg/m3 0.24 mg/m3 13.47 °C 75.01 % 1,009.45 mbar 2.21 m/s 292.02 Deg 2.7 µg/m3 1.23 µg/m3
2022-01-07 17:00 34.46 µg/m3 0.63 µg/m3 42.03 µg/m3 14.15 µg/m3 9.8 µg/m3 0.28 mg/m3 12.98 °C 84 % 1,008.89 mbar 2.13 m/s 279.31 Deg 10.39 µg/m3 1.81 µg/m3
2022-01-07 09:00 18.36 µg/m3 0.55 µg/m3 53.16 µg/m3 12.08 µg/m3 8.9 µg/m3 0.22 mg/m3 13.66 °C 79.48 % 1,008.98 mbar 1.75 m/s 289.65 Deg 4.22 µg/m3 1.54 µg/m3
2022-01-07 01:00 16.94 µg/m3 0.51 µg/m3 61.11 µg/m3 13.93 µg/m3 9.47 µg/m3 0.26 mg/m3 14.49 °C 77.18 % 1,009.23 mbar 2 m/s 214.02 Deg 7.17 µg/m3 1.26 µg/m3
2022-01-06 17:00 30.31 µg/m3 1.15 µg/m3 56.69 µg/m3 27.62 µg/m3 13.63 µg/m3 0.44 mg/m3 15.4 °C 74.94 % 1,008.93 mbar 2.32 m/s 56.66 Deg 44.08 µg/m3 3.23 µg/m3
2022-01-06 09:00 41.26 µg/m3 1.96 µg/m3 13.12 µg/m3 28.34 µg/m3 19 µg/m3 0.79 mg/m3 12.58 °C 82.59 % 1,010.53 mbar 0.64 m/s 240.89 Deg 91.69 µg/m3 6.15 µg/m3
2022-01-06 01:00 40.36 µg/m3 0.62 µg/m3 26.85 µg/m3 23.93 µg/m3 16.18 µg/m3 0.39 mg/m3 14.53 °C 82.63 % 1,011.44 mbar 1.15 m/s 227.28 Deg 7.65 µg/m3 3.02 µg/m3
2022-01-05 17:00 15.29 µg/m3 0.53 µg/m3 61.36 µg/m3 23.97 µg/m3 10.86 µg/m3 0.2 mg/m3 17.54 °C 68.9 % 1,011.69 mbar 3.96 m/s 217.11 Deg 3.66 µg/m3 1.04 µg/m3
2022-01-05 09:00 18.28 µg/m3 0.53 µg/m3 54.59 µg/m3 13.8 µg/m3 9.14 µg/m3 0.21 mg/m3 15.32 °C 80.37 % 1,013.69 mbar 1.57 m/s 215.17 Deg 3.38 µg/m3 1.15 µg/m3
2022-01-05 01:00 23.52 µg/m3 0.49 µg/m3 57.14 µg/m3 21.15 µg/m3 14.92 µg/m3 0.29 mg/m3 15.09 °C 85.2 % 1,016.67 mbar 1.42 m/s 217.46 Deg 1.87 µg/m3 1.89 µg/m3
2022-01-04 17:00 20.71 µg/m3 0.61 µg/m3 55.85 µg/m3 29.55 µg/m3 17.78 µg/m3 0.25 mg/m3 16.04 °C 75.29 % 1,019.40 mbar 2.67 m/s 228.07 Deg 5.76 µg/m3 1.36 µg/m3
2022-01-04 09:00 20.35 µg/m3 0.61 µg/m3 48.23 µg/m3 10.58 µg/m3 7.3 µg/m3 0.21 mg/m3 14.21 °C 78.04 % 1,020.93 mbar 1.72 m/s 250.72 Deg 6.46 µg/m3 0.76 µg/m3
2022-01-04 01:00 13.08 µg/m3 0.57 µg/m3 55.21 µg/m3 11.03 µg/m3 7.74 µg/m3 0.2 mg/m3 14.41 °C 79.08 % 1,021.89 mbar 2.02 m/s 260.96 Deg 2.13 µg/m3 0.76 µg/m3
2022-01-03 17:00 20.37 µg/m3 0.65 µg/m3 47.53 µg/m3 37.92 µg/m3 12.75 µg/m3 0.24 mg/m3 14.98 °C 75.15 % 1,022.90 mbar 2.92 m/s 258.27 Deg 6.83 µg/m3 1.22 µg/m3
2022-01-03 09:00 15.48 µg/m3 0.57 µg/m3 46.16 µg/m3 10.02 µg/m3 7.14 µg/m3 0.2 mg/m3 14.04 °C 80.54 % 1,023.73 mbar 1.75 m/s 246.25 Deg 3.48 µg/m3 0.88 µg/m3
2022-01-03 01:00 35.01 µg/m3 0.76 µg/m3 22.17 µg/m3 21.99 µg/m3 16.87 µg/m3 0.41 mg/m3 14.14 °C 86.05 % 1,025.38 mbar 0.57 m/s 218.95 Deg 12.7 µg/m3 2.72 µg/m3
2022-01-02 17:00 22.71 µg/m3 0.72 µg/m3 48.23 µg/m3 19.24 µg/m3 11.62 µg/m3 0.35 mg/m3 17.31 °C 70.03 % 1,025.72 mbar 1.42 m/s 188.73 Deg 17.94 µg/m3 2.16 µg/m3
2022-01-02 09:00 23.41 µg/m3 0.62 µg/m3 20.34 µg/m3 15.51 µg/m3 11.02 µg/m3 0.29 mg/m3 13.26 °C 88.71 % 1,025.00 mbar 0.6 m/s 222.69 Deg 9.17 µg/m3 2.1 µg/m3
2022-01-02 01:00 16.36 µg/m3 0.48 µg/m3 41.39 µg/m3 24.35 µg/m3 18.31 µg/m3 0.25 mg/m3 15.12 °C 85.45 % 1,024.31 mbar 1.44 m/s 270.22 Deg 2.73 µg/m3 1.05 µg/m3
2022-01-01 17:00 12.3 µg/m3 0.54 µg/m3 54.34 µg/m3 14.98 µg/m3 10.03 µg/m3 0.24 mg/m3 16.66 °C 79.67 % 1,024.02 mbar 2.54 m/s 254.3 Deg 2.94 µg/m3 1 µg/m3
2022-01-01 09:00 39.45 µg/m3 1.27 µg/m3 13.02 µg/m3 20.3 µg/m3 15.76 µg/m3 0.5 mg/m3 13.41 °C 86.15 % 1,024.57 mbar 0.42 m/s 227.13 Deg 30.39 µg/m3 4.33 µg/m3
2022-01-01 01:00 57 µg/m3 1.09 µg/m3 11.53 µg/m3 31.71 µg/m3 22.12 µg/m3 0.73 mg/m3 14 °C 73.26 % 1,025.18 mbar 0.61 m/s 221.44 Deg 26.83 µg/m3 5.47 µg/m3
2021-12-31 17:00 24.88 µg/m3 0.7 µg/m3 55.46 µg/m3 19.6 µg/m3 9.53 µg/m3 0.32 mg/m3 17.13 °C 65.06 % 1,023.63 mbar 1.56 m/s 285.39 Deg 9.58 µg/m3 2.13 µg/m3
2021-12-31 09:00 34.07 µg/m3 0.96 µg/m3 14.37 µg/m3 19.14 µg/m3 13.66 µg/m3 0.46 mg/m3 13.04 °C 82.52 % 1,021.11 mbar 0.84 m/s 210.02 Deg 23.79 µg/m3 3.6 µg/m3
2021-12-31 01:00 49.7 µg/m3 1.57 µg/m3 15.22 µg/m3 26.68 µg/m3 18.39 µg/m3 0.86 mg/m3 15.43 °C 83.72 % 1,018.25 mbar 0.6 m/s 190.73 Deg 63.83 µg/m3 6.44 µg/m3
2021-12-30 17:00 17.89 µg/m3 0.49 µg/m3 51.41 µg/m3 21.26 µg/m3 13.04 µg/m3 0.27 mg/m3 17.15 °C 79.67 % 1,015.21 mbar 2.34 m/s 292.24 Deg 7.45 µg/m3 0.98 µg/m3
2021-12-30 09:00 11.85 µg/m3 0.44 µg/m3 53.69 µg/m3 21.54 µg/m3 14.86 µg/m3 0.18 mg/m3 16.07 °C 84.59 % 1,013.21 mbar 2.22 m/s 272.6 Deg 2.19 µg/m3 0.71 µg/m3
2021-12-30 01:00 9.34 µg/m3 0.47 µg/m3 64.73 µg/m3 21.24 µg/m3 15.28 µg/m3 0.2 mg/m3 16.54 °C 80.02 % 1,012.75 mbar 3.9 m/s 266.94 Deg 1.29 µg/m3 0.67 µg/m3
2021-12-29 17:00 15.96 µg/m3 0.52 µg/m3 59.57 µg/m3 28.33 µg/m3 15.84 µg/m3 0.23 mg/m3 17.1 °C 76.42 % 1,012.87 mbar 4.46 m/s 262.89 Deg 4.2 µg/m3 0.89 µg/m3
2021-12-29 09:00 10.44 µg/m3 0.49 µg/m3 59.73 µg/m3 19.28 µg/m3 13.52 µg/m3 0.18 mg/m3 15.93 °C 80.45 % 1,013.25 mbar 2.79 m/s 262.89 Deg 1.76 µg/m3 0.58 µg/m3
2021-12-29 01:00 10.16 µg/m3 0.46 µg/m3 64.49 µg/m3 19.39 µg/m3 14.32 µg/m3 0.21 mg/m3 15.98 °C 80.09 % 1,013.15 mbar 3.47 m/s 258.89 Deg 1.33 µg/m3 0.71 µg/m3
2021-12-28 17:00 15.27 µg/m3 0.53 µg/m3 59.58 µg/m3 26.63 µg/m3 12.69 µg/m3 0.23 mg/m3 17.29 °C 72.04 % 1,012.06 mbar 4.32 m/s 260.4 Deg 4.94 µg/m3 1.24 µg/m3
2021-12-28 09:00 9.15 µg/m3 0.44 µg/m3 55.84 µg/m3 17.51 µg/m3 12 µg/m3 0.18 mg/m3 16.38 °C 79.43 % 1,011.58 mbar 3.18 m/s 241.54 Deg 2.02 µg/m3 0.81 µg/m3
2021-12-28 01:00 17.39 µg/m3 0.49 µg/m3 54.47 µg/m3 18.21 µg/m3 12.68 µg/m3 0.26 mg/m3 16.22 °C 82.06 % 1,013.75 mbar 1.91 m/s 225.97 Deg 1.84 µg/m3 1.28 µg/m3
2021-12-27 17:00 26.34 µg/m3 0.76 µg/m3 47.93 µg/m3 24.53 µg/m3 11.44 µg/m3 0.3 mg/m3 17.57 °C 71.07 % 1,013.55 mbar 2.25 m/s 267.08 Deg 16.29 µg/m3 1.82 µg/m3
2021-12-27 09:00 35.77 µg/m3 1.14 µg/m3 23.14 µg/m3 23.28 µg/m3 15.39 µg/m3 0.48 mg/m3 15.77 °C 82.2 % 1,012.34 mbar 0.65 m/s 229.34 Deg 40.59 µg/m3 4.83 µg/m3
2021-12-27 01:00 14.99 µg/m3 0.55 µg/m3 52.6 µg/m3 16.66 µg/m3 10.98 µg/m3 0.25 mg/m3 16.86 °C 80.24 % 1,013.59 mbar 1.3 m/s 213.59 Deg 1.37 µg/m3 1.36 µg/m3
2021-12-26 17:00 15.63 µg/m3 0.61 µg/m3 56.09 µg/m3 29.48 µg/m3 12.8 µg/m3 0.3 mg/m3 18.99 °C 59.46 % 1,013.85 mbar 2.32 m/s 207.72 Deg 5.13 µg/m3 2.47 µg/m3
2021-12-26 09:00 19.13 µg/m3 0.7 µg/m3 43.8 µg/m3 24.51 µg/m3 14.65 µg/m3 0.35 mg/m3 16.71 °C 75.56 % 1,014.49 mbar 1.39 m/s 213.07 Deg 11.98 µg/m3 2.07 µg/m3
2021-12-26 01:00 15.45 µg/m3 0.54 µg/m3 51.81 µg/m3 24.49 µg/m3 16.35 µg/m3 0.26 mg/m3 16.47 °C 79.17 % 1,015.35 mbar 1.44 m/s 213.29 Deg 1.62 µg/m3 1.46 µg/m3
2021-12-25 17:00 11.72 µg/m3 0.58 µg/m3 68.63 µg/m3 32.99 µg/m3 17.07 µg/m3 0.27 mg/m3 18.17 °C 73.72 % 1,016.82 mbar 2.25 m/s 195.69 Deg 2.79 µg/m3 1.64 µg/m3
2021-12-25 09:00 30.28 µg/m3 0.92 µg/m3 35.58 µg/m3 21.28 µg/m3 14.86 µg/m3 0.42 mg/m3 15.31 °C 82.62 % 1,018.85 mbar 1.04 m/s 224.39 Deg 13.18 µg/m3 3.56 µg/m3
2021-12-25 01:00 59.28 µg/m3 1.8 µg/m3 6.96 µg/m3 38.38 µg/m3 26.6 µg/m3 1.07 mg/m3 14.03 °C 79.83 % 1,020.74 mbar 0.69 m/s 213.48 Deg 67.61 µg/m3 9.5 µg/m3
2021-12-24 17:00 27.79 µg/m3 0.93 µg/m3 55.47 µg/m3 17.83 µg/m3 8.96 µg/m3 0.34 mg/m3 16.39 °C 65.5 % 1,022.18 mbar 1.2 m/s 200.98 Deg 15.98 µg/m3 2.45 µg/m3
2021-12-24 09:00 43 µg/m3 1.61 µg/m3 2.88 µg/m3 27.14 µg/m3 19.06 µg/m3 0.73 mg/m3 11.55 °C 83.97 % 1,023.09 mbar 0.67 m/s 239.5 Deg 53.09 µg/m3 6.67 µg/m3
2021-12-24 01:00 32.73 µg/m3 0.99 µg/m3 49.44 µg/m3 13.57 µg/m3 8.72 µg/m3 0.43 mg/m3 14.52 °C 74.16 % 1,022.88 mbar 2.52 m/s 97.48 Deg 26.07 µg/m3 2.68 µg/m3
2021-12-23 17:00 19.78 µg/m3 0.95 µg/m3 67.24 µg/m3 11.94 µg/m3 7.02 µg/m3 0.31 mg/m3 15.12 °C 72.61 % 1,022.05 mbar 4.35 m/s 51.53 Deg 26.46 µg/m3 1.45 µg/m3
2021-12-23 09:00 8.56 µg/m3 0.74 µg/m3 73.97 µg/m3 7.76 µg/m3 5.33 µg/m3 0.21 mg/m3 14.59 °C 74.32 % 1,021.60 mbar 4.26 m/s 48.39 Deg 9.15 µg/m3 0.91 µg/m3
2021-12-23 01:00 32.9 µg/m3 1.09 µg/m3 51.7 µg/m3 16.14 µg/m3 8.13 µg/m3 0.38 mg/m3 14.84 °C 70.2 % 1,021.71 mbar 2.17 m/s 57.27 Deg 32.67 µg/m3 2.72 µg/m3
2021-12-22 17:00 40.12 µg/m3 1.19 µg/m3 48.17 µg/m3 33.47 µg/m3 11.14 µg/m3 0.43 mg/m3 15.51 °C 64.3 % 1,021.71 mbar 1.34 m/s 172.45 Deg 33.13 µg/m3 3.5 µg/m3
2021-12-22 09:00 46.54 µg/m3 2.02 µg/m3 7.49 µg/m3 33.72 µg/m3 19.78 µg/m3 0 mg/m3 12.06 °C 80.04 % 1,022.17 mbar 0.69 m/s 237.76 Deg 77.53 µg/m3 6.33 µg/m3
2021-12-22 01:00 66.02 µg/m3 2.14 µg/m3 5.02 µg/m3 53.78 µg/m3 31.99 µg/m3 0 mg/m3 12.94 °C 74.11 % 1,022.51 mbar 0.67 m/s 235.8 Deg 81.89 µg/m3 9.94 µg/m3
2021-12-21 17:00 32.29 µg/m3 0.85 µg/m3 53.23 µg/m3 25.68 µg/m3 9.21 µg/m3 0.31 mg/m3 15.7 °C 61.92 % 1,021.85 mbar 1.64 m/s 297.34 Deg 12.56 µg/m3 1.84 µg/m3

It is to be noted that the data is provisional and subject to quality assurance procedures. For validated data kindly refer your request to contact.air@era.org.mt